Time;durP1;ratioP1;P1;durP2;ratioP2;P2;SDS_P1;SDS_P2;PMS_P1;PMS_P2;Temp;Humidity;BMP_temperature;BMP_pressure;BME280_temperature;BME280_humidity;BME280_pressure;Samples;Min_cycle;Max_cycle;Signal;HPM_P1;HPM_P2
2022/11/06 00:01:24;;;;;;;20.63;16.00;;;;;;;4.81;100.00;100506.66;5028532;27;20223;-63
2022/11/06 00:03:53;;;;;;;17.73;15.77;;;;;;;4.67;100.00;100501.03;5045599;28;20177;-61
2022/11/06 00:09:06;;;;;;;17.80;14.67;;;;;;;4.48;100.00;100495.56;5056276;28;20254;-62
2022/11/06 00:11:31;;;;;;;18.03;14.30;;;;;;;4.41;100.00;100494.84;5019879;28;20225;-60
2022/11/06 00:14:01;;;;;;;22.50;13.90;;;;;;;4.39;100.00;100483.00;5053313;28;20207;-61
2022/11/06 00:16:27;;;;;;;21.47;14.43;;;;;;;4.46;100.00;100482.00;5027998;28;20248;-61
2022/11/06 00:18:53;;;;;;;20.50;13.73;;;;;;;4.48;100.00;100481.09;5038556;28;20255;-60
2022/11/06 00:21:23;;;;;;;19.07;13.97;;;;;;;4.37;100.00;100470.31;5027344;28;20315;-60
2022/11/06 00:23:49;;;;;;;16.57;13.97;;;;;;;4.46;100.00;100476.91;5055433;28;20189;-61
2022/11/06 00:26:18;;;;;;;18.53;13.77;;;;;;;4.47;100.00;100481.13;5057114;28;20201;-61
2022/11/06 00:28:43;;;;;;;18.30;15.03;;;;;;;4.40;100.00;100467.69;5028403;28;20192;-64
2022/11/06 00:31:12;;;;;;;19.13;13.70;;;;;;;4.31;100.00;100461.09;5022177;28;20217;-63
2022/11/06 00:33:38;;;;;;;21.87;14.10;;;;;;;4.33;100.00;100456.00;5057031;28;20200;-62
2022/11/06 00:36:06;;;;;;;20.60;13.93;;;;;;;4.30;100.00;100453.50;5056675;28;20181;-60
2022/11/06 00:38:32;;;;;;;20.70;13.63;;;;;;;4.23;100.00;100446.88;5057276;28;20247;-60
2022/11/06 00:41:09;;;;;;;17.50;14.00;;;;;;;4.19;100.00;100444.41;5044162;28;21021;-61
2022/11/06 00:43:35;;;;;;;20.67;14.50;;;;;;;4.20;100.00;100442.69;5032078;28;20243;-60
2022/11/06 00:46:03;;;;;;;20.30;13.57;;;;;;;4.18;100.00;100437.63;5053569;28;20535;-60
2022/11/06 00:48:28;;;;;;;18.60;13.87;;;;;;;4.17;100.00;100440.22;5033547;28;20648;-62
2022/11/06 00:50:54;;;;;;;18.93;13.00;;;;;;;4.15;100.00;100439.41;5042227;28;20248;-62
2022/11/06 00:53:20;;;;;;;15.83;13.60;;;;;;;4.08;100.00;100436.16;5049713;28;20182;-62
2022/11/06 00:55:45;;;;;;;15.47;12.93;;;;;;;4.01;100.00;100439.72;5057258;28;20211;-62
2022/11/06 00:58:10;;;;;;;16.13;13.03;;;;;;;3.97;100.00;100436.41;5070078;28;20184;-62
2022/11/06 01:00:35;;;;;;;19.93;13.30;;;;;;;3.88;100.00;100434.03;5064301;28;20683;-62
2022/11/06 01:03:01;;;;;;;20.07;13.60;;;;;;;3.72;100.00;100424.19;5064875;28;20200;-62
2022/11/06 01:05:26;;;;;;;16.50;13.73;;;;;;;3.71;100.00;100432.69;5068047;28;20738;-61
2022/11/06 01:07:52;;;;;;;19.40;14.30;;;;;;;3.75;100.00;100432.66;5053859;28;20303;-61
2022/11/06 01:10:17;;;;;;;21.70;14.17;;;;;;;3.69;100.00;100436.97;5027483;28;20286;-61
2022/11/06 01:12:42;;;;;;;21.47;15.23;;;;;;;3.70;100.00;100442.91;5050817;28;20268;-62
2022/11/06 01:15:08;;;;;;;18.67;13.53;;;;;;;3.71;100.00;100445.41;5053939;28;20181;-61
2022/11/06 01:17:34;;;;;;;19.00;13.67;;;;;;;3.58;100.00;100449.06;5053121;28;20189;-63
2022/11/06 01:19:59;;;;;;;21.03;14.10;;;;;;;3.46;100.00;100452.72;5054058;28;20196;-62
2022/11/06 01:22:24;;;;;;;17.97;12.83;;;;;;;3.56;100.00;100448.28;5059061;28;20304;-62
2022/11/06 01:24:50;;;;;;;21.43;14.30;;;;;;;3.52;100.00;100446.66;5054110;28;20659;-61
2022/11/06 01:27:15;;;;;;;21.87;14.40;;;;;;;3.39;100.00;100453.69;5053031;28;20205;-61
2022/11/06 01:29:40;;;;;;;18.30;13.87;;;;;;;3.50;100.00;100451.78;5053768;28;20647;-61
2022/11/06 01:32:06;;;;;;;22.33;15.50;;;;;;;3.48;100.00;100453.50;5058902;28;20263;-62
2022/11/06 01:34:31;;;;;;;21.03;15.10;;;;;;;3.46;100.00;100444.22;5053633;28;20629;-61
2022/11/06 01:36:56;;;;;;;19.70;14.67;;;;;;;3.35;100.00;100449.50;5053424;28;20960;-61
2022/11/06 01:39:22;;;;;;;24.17;15.17;;;;;;;3.33;100.00;100454.63;5053471;28;20176;-61
2022/11/06 01:41:49;;;;;;;18.87;14.90;;;;;;;3.16;100.00;100449.88;5057004;28;20694;-61
2022/11/06 01:44:39;;;;;;;21.43;14.20;;;;;;;3.02;100.00;100441.66;5036939;28;20212;-61
2022/11/06 01:47:19;;;;;;;17.43;13.33;;;;;;;3.06;100.00;100431.41;5052677;28;20746;-61
2022/11/06 01:49:45;;;;;;;19.83;14.27;;;;;;;2.99;100.00;100432.38;5068768;28;20262;-61
2022/11/06 01:52:13;;;;;;;18.33;14.50;;;;;;;3.17;100.00;100432.91;5023036;28;20587;-61
2022/11/06 01:54:41;;;;;;;15.90;13.27;;;;;;;3.05;100.00;100434.81;5032272;28;20192;-61
2022/11/06 01:57:09;;;;;;;19.87;13.43;;;;;;;3.02;100.00;100439.94;5039213;28;20191;-61
2022/11/06 01:59:39;;;;;;;17.73;13.50;;;;;;;3.03;100.00;100433.16;5043308;28;20198;-61
2022/11/06 02:02:04;;;;;;;25.83;12.77;;;;;;;3.15;100.00;100432.09;5056295;28;20227;-60
2022/11/06 02:04:36;;;;;;;19.93;14.70;;;;;;;3.15;100.00;100424.47;5063006;28;20180;-61
2022/11/06 02:07:02;;;;;;;22.00;14.60;;;;;;;3.11;100.00;100418.59;5037219;28;20213;-61
2022/11/06 02:09:30;;;;;;;16.80;12.70;;;;;;;3.06;100.00;100425.47;5052914;28;20643;-60
2022/11/06 02:12:40;;;;;;;17.37;13.70;;;;;;;3.09;100.00;100422.03;5057149;28;20276;-61
2022/11/06 02:15:25;;;;;;;19.87;13.00;;;;;;;3.13;100.00;100421.97;4952387;29;20195;-61
2022/11/06 02:17:59;;;;;;;23.30;13.60;;;;;;;3.21;100.00;100409.97;4951990;29;20194;-61
2022/11/06 02:20:34;;;;;;;19.43;15.17;;;;;;;3.14;100.00;100405.00;4943683;28;20693;-61
2022/11/06 02:23:28;;;;;;;17.60;14.30;;;;;;;3.07;100.00;100404.28;4964127;28;20189;-61
2022/11/06 02:26:19;;;;;;;20.37;13.03;;;;;;;2.96;100.00;100403.66;4968358;28;20227;-62
2022/11/06 02:28:52;;;;;;;22.60;13.87;;;;;;;3.03;100.00;100398.41;4952381;29;20263;-62
2022/11/06 02:31:27;;;;;;;17.73;13.67;;;;;;;3.04;100.00;100389.94;4933038;28;20238;-62
2022/11/06 02:33:58;;;;;;;16.50;12.83;;;;;;;3.07;100.00;100394.13;4956956;28;20194;-64
2022/11/06 02:36:32;;;;;;;21.43;14.07;;;;;;;2.97;100.00;100390.06;4935321;29;20243;-62
2022/11/06 02:39:06;;;;;;;18.97;14.70;;;;;;;2.78;100.00;100387.88;4920707;29;20198;-61
2022/11/06 02:41:36;;;;;;;20.83;13.93;;;;;;;2.98;100.00;100384.97;4926501;29;20710;-61
2022/11/06 02:44:06;;;;;;;21.23;16.13;;;;;;;3.04;100.00;100396.72;4936047;29;20218;-65
2022/11/06 02:46:37;;;;;;;25.10;17.97;;;;;;;3.06;100.00;100394.97;5001694;28;20207;-62
2022/11/06 02:49:11;;;;;;;23.27;19.33;;;;;;;2.89;100.00;100395.28;5031557;28;20970;-61
2022/11/06 02:51:42;;;;;;;23.83;15.97;;;;;;;2.97;100.00;100390.06;5025690;28;20227;-61
2022/11/06 02:54:10;;;;;;;15.17;12.53;;;;;;;2.98;100.00;100396.84;5033397;28;20291;-61
2022/11/06 02:56:41;;;;;;;16.73;12.87;;;;;;;2.84;100.00;100394.53;5016891;28;20206;-61
2022/11/06 02:59:19;;;;;;;18.50;13.60;;;;;;;3.01;100.00;100396.78;5043055;28;20276;-62
2022/11/06 03:01:50;;;;;;;16.20;12.17;;;;;;;3.09;100.00;100409.34;5059770;28;20234;-62
2022/11/06 03:04:23;;;;;;;17.47;13.53;;;;;;;3.10;100.00;100404.25;5040363;28;20180;-61
2022/11/06 03:06:56;;;;;;;19.43;14.00;;;;;;;3.04;100.00;100405.19;5034794;28;20250;-61
2022/11/06 03:09:27;;;;;;;14.17;12.07;;;;;;;2.94;100.00;100403.69;5030509;28;20173;-61
2022/11/06 03:12:00;;;;;;;17.47;14.07;;;;;;;2.64;100.00;100393.19;5056831;28;20256;-61
2022/11/06 03:14:33;;;;;;;16.87;13.50;;;;;;;2.54;100.00;100371.34;5030307;28;20187;-61
2022/11/06 03:17:03;;;;;;;14.77;12.40;;;;;;;2.54;100.00;100363.72;5031265;28;20194;-61
2022/11/06 03:20:05;;;;;;;16.87;13.27;;;;;;;2.53;100.00;100373.06;5030690;28;20188;-61
2022/11/06 03:22:33;;;;;;;14.87;11.63;;;;;;;2.67;100.00;100380.44;5053109;28;20296;-61
2022/11/06 03:25:10;;;;;;;12.60;11.00;;;;;;;2.64;100.00;100377.09;5031053;28;20223;-62
2022/11/06 03:27:45;;;;;;;16.30;12.40;;;;;;;2.76;100.00;100381.97;5029315;28;20205;-61
2022/11/06 03:30:12;;;;;;;20.00;12.10;;;;;;;2.74;100.00;100383.69;5021707;28;20176;-61
2022/11/06 03:33:05;;;;;;;20.53;12.30;;;;;;;2.64;100.00;100385.56;5037209;28;20193;-61
2022/11/06 03:35:39;;;;;;;18.07;12.20;;;;;;;2.66;100.00;100388.91;5027160;28;20279;-61
2022/11/06 03:38:14;;;;;;;15.43;11.60;;;;;;;2.67;100.00;100377.06;5029618;28;20232;-61
2022/11/06 03:40:45;;;;;;;13.60;10.37;;;;;;;2.66;100.00;100372.84;5055843;28;20254;-61
2022/11/06 03:43:14;;;;;;;15.03;10.90;;;;;;;2.63;100.00;100372.88;5030298;28;20261;-60
2022/11/06 03:45:43;;;;;;;16.23;10.60;;;;;;;2.67;100.00;100371.97;5031055;28;20200;-61
2022/11/06 03:48:13;;;;;;;14.60;11.27;;;;;;;2.62;100.00;100361.91;5029078;28;20643;-61
2022/11/06 03:51:00;;;;;;;14.87;11.07;;;;;;;2.66;100.00;100367.75;5031236;28;20250;-63
2022/11/06 03:53:38;;;;;;;17.13;11.33;;;;;;;2.56;100.00;100357.75;5038633;28;20305;-61
2022/11/06 03:56:13;;;;;;;14.20;9.90;;;;;;;2.57;100.00;100356.88;5029540;28;20223;-62
2022/11/06 03:58:44;;;;;;;12.60;10.20;;;;;;;2.62;100.00;100353.41;5043176;28;20257;-62
2022/11/06 04:01:12;;;;;;;15.07;10.40;;;;;;;2.65;100.00;100343.22;5022169;28;20234;-60
2022/11/06 04:03:44;;;;;;;13.80;9.70;;;;;;;2.50;100.00;100329.09;5035359;28;20263;-60
2022/11/06 04:06:20;;;;;;;15.30;11.20;;;;;;;2.63;100.00;100339.88;5039787;28;20204;-61
2022/11/06 04:14:26;;;;;;;17.27;12.07;;;;;;;2.43;100.00;100338.50;5032047;28;20186;-60
2022/11/06 04:16:57;;;;;;;19.33;12.73;;;;;;;2.51;100.00;100341.75;5037099;28;20716;-60
2022/11/06 04:19:23;;;;;;;16.50;12.90;;;;;;;2.63;100.00;100344.94;5030898;28;20195;-59
2022/11/06 04:21:48;;;;;;;17.53;13.67;;;;;;;2.71;100.00;100350.72;5037331;28;20226;-60
2022/11/06 04:27:33;;;;;;;18.70;13.10;;;;;;;2.60;100.00;100368.69;5030241;28;20210;-60
2022/11/06 04:30:07;;;;;;;16.10;13.17;;;;;;;2.53;100.00;100378.13;5031225;28;20191;-60
2022/11/06 04:33:17;;;;;;;23.77;12.80;;;;;;;2.39;100.00;100380.91;4999692;28;20673;-60
2022/11/06 04:35:49;;;;;;;16.70;12.10;;;;;;;2.48;100.00;100362.13;4969619;28;20213;-60
2022/11/06 04:38:34;;;;;;;17.57;12.07;;;;;;;2.50;100.00;100372.25;4972917;28;20206;-61
2022/11/06 04:41:16;;;;;;;21.73;12.30;;;;;;;2.49;100.00;100373.13;4946902;28;20301;-61
2022/11/06 04:43:51;;;;;;;17.77;13.13;;;;;;;2.32;100.00;100368.31;4957075;28;20309;-60
2022/11/06 04:46:24;;;;;;;20.00;13.67;;;;;;;2.26;100.00;100359.94;4956548;28;20225;-62
2022/11/06 04:48:50;;;;;;;17.10;12.73;;;;;;;2.34;100.00;100358.97;4957244;28;20190;-61
2022/11/06 04:51:20;;;;;;;14.73;12.47;;;;;;;2.35;100.00;100366.56;4963448;28;20316;-60
2022/11/06 04:53:50;;;;;;;18.97;13.77;;;;;;;2.37;100.00;100369.94;4957200;28;20280;-60
2022/11/06 04:56:24;;;;;;;15.67;11.90;;;;;;;2.40;100.00;100374.94;4972668;28;20244;-61
2022/11/06 04:58:50;;;;;;;18.03;13.43;;;;;;;2.44;100.00;100367.28;4986239;28;20597;-61
2022/11/06 05:01:15;;;;;;;15.67;13.10;;;;;;;2.30;100.00;100364.97;4963963;28;20294;-61
2022/11/06 05:03:40;;;;;;;24.30;13.43;;;;;;;2.40;100.00;100372.41;4972204;28;20198;-61
2022/11/06 05:06:05;;;;;;;16.83;14.73;;;;;;;2.42;100.00;100369.88;4983259;28;20281;-61
2022/11/06 05:08:31;;;;;;;17.13;13.20;;;;;;;2.40;100.00;100369.88;4972516;28;20200;-61
2022/11/06 05:10:56;;;;;;;20.57;14.30;;;;;;;2.32;100.00;100369.16;4961551;28;20723;-62
2022/11/06 05:13:21;;;;;;;24.53;13.80;;;;;;;2.19;100.00;100368.50;5012671;28;20971;-60
2022/11/06 05:15:46;;;;;;;19.93;13.07;;;;;;;2.15;100.00;100366.06;5014318;28;20188;-60
2022/11/06 05:18:12;;;;;;;16.50;12.50;;;;;;;2.30;100.00;100359.91;5045468;28;20570;-60
2022/11/06 05:20:37;;;;;;;16.23;12.53;;;;;;;2.19;100.00;100360.88;5013399;28;20223;-60
2022/11/06 05:23:02;;;;;;;18.50;12.77;;;;;;;2.13;100.00;100344.94;5036478;28;20194;-60
2022/11/06 05:25:31;;;;;;;22.97;12.63;;;;;;;1.97;100.00;100340.09;5013827;28;20185;-60
2022/11/06 05:27:56;;;;;;;15.90;12.80;;;;;;;1.81;100.00;100336.09;5045416;28;20180;-60
2022/11/06 05:30:24;;;;;;;15.27;12.70;;;;;;;1.81;100.00;100333.56;5008839;28;20219;-59
2022/11/06 05:32:50;;;;;;;18.23;13.90;;;;;;;1.75;100.00;100335.34;5040203;28;20214;-60
2022/11/06 05:35:16;;;;;;;20.03;12.90;;;;;;;1.95;100.00;100344.38;5012611;28;20181;-60
2022/11/06 05:37:41;;;;;;;18.70;12.80;;;;;;;1.97;100.00;100345.16;5060483;28;20229;-59
2022/11/06 05:40:08;;;;;;;13.83;11.80;;;;;;;2.01;100.00;100340.88;5024157;28;20209;-61
2022/11/06 05:42:37;;;;;;;16.90;13.27;;;;;;;1.96;100.00;100347.72;5048412;28;20208;-61
2022/11/06 05:45:03;;;;;;;20.57;14.20;;;;;;;1.76;100.00;100347.16;5032355;28;20182;-60
2022/11/06 05:47:28;;;;;;;16.43;13.20;;;;;;;1.60;100.00;100336.38;5032441;28;20728;-60
2022/11/06 05:49:53;;;;;;;20.27;13.63;;;;;;;1.61;100.00;100327.06;5033268;28;20182;-60
2022/11/06 05:52:19;;;;;;;21.20;14.10;;;;;;;1.63;100.00;100312.69;5054753;28;20275;-61
2022/11/06 05:54:44;;;;;;;19.83;13.73;;;;;;;1.68;100.00;100310.91;5065052;28;20516;-61
2022/11/06 05:57:09;;;;;;;18.47;13.47;;;;;;;1.69;100.00;100299.09;5037871;28;20195;-60
2022/11/06 05:59:34;;;;;;;24.73;15.83;;;;;;;1.56;100.00;100304.34;5041746;28;20178;-61
2022/11/06 06:02:00;;;;;;;15.70;12.53;;;;;;;1.65;100.00;100302.50;5055100;28;20227;-61
2022/11/06 06:04:25;;;;;;;19.67;13.67;;;;;;;1.93;100.00;100300.41;5042897;28;20192;-61
2022/11/06 06:06:50;;;;;;;17.23;14.57;;;;;;;2.06;100.00;100290.88;5036874;28;20682;-60
2022/11/06 06:09:16;;;;;;;18.37;12.90;;;;;;;2.07;100.00;100306.09;5033030;28;20639;-62
2022/11/06 06:11:41;;;;;;;17.93;13.47;;;;;;;2.02;100.00;100315.50;5038630;28;20693;-60
2022/11/06 06:14:07;;;;;;;19.40;14.20;;;;;;;1.95;100.00;100311.38;5038245;28;20197;-60
2022/11/06 06:16:32;;;;;;;22.03;14.17;;;;;;;2.03;100.00;100296.03;5032830;28;20223;-60
2022/11/06 06:18:57;;;;;;;21.03;14.57;;;;;;;2.01;100.00;100282.50;5032785;28;20211;-61
2022/11/06 06:21:22;;;;;;;19.27;13.83;;;;;;;1.93;100.00;100282.66;5043700;28;20282;-61
2022/11/06 06:23:48;;;;;;;20.17;15.50;;;;;;;1.90;100.00;100267.50;5043768;28;20251;-60
2022/11/06 06:26:13;;;;;;;22.07;16.20;;;;;;;1.93;100.00;100268.28;5031891;28;20222;-61
2022/11/06 06:28:38;;;;;;;23.43;15.90;;;;;;;2.01;100.00;100263.06;5030306;28;20183;-61
2022/11/06 06:31:05;;;;;;;23.33;16.33;;;;;;;1.94;100.00;100249.63;5029510;28;20665;-61
2022/11/06 06:33:31;;;;;;;21.57;14.97;;;;;;;1.76;100.00;100242.31;5030401;28;20208;-61
2022/11/06 06:35:56;;;;;;;19.57;15.23;;;;;;;1.87;100.00;100234.53;5033053;28;20610;-60
2022/11/06 06:38:22;;;;;;;21.80;15.50;;;;;;;1.89;100.00;100236.19;5051546;28;20191;-60
2022/11/06 06:40:47;;;;;;;24.23;15.90;;;;;;;1.84;100.00;100242.22;5039454;28;20730;-60
2022/11/06 06:43:12;;;;;;;26.27;15.53;;;;;;;1.90;100.00;100240.41;5044526;28;20179;-60
2022/11/06 06:45:38;;;;;;;20.23;15.37;;;;;;;1.98;100.00;100244.53;5052174;28;20183;-60
2022/11/06 06:48:04;;;;;;;18.57;14.70;;;;;;;1.97;100.00;100247.91;5051475;28;20273;-61
2022/11/06 06:50:30;;;;;;;22.53;15.27;;;;;;;1.98;100.00;100244.53;5017269;28;20748;-60
2022/11/06 06:52:59;;;;;;;20.60;15.83;;;;;;;1.89;100.00;100256.50;5028019;28;20184;-60
2022/11/06 06:55:24;;;;;;;17.53;14.90;;;;;;;2.07;100.00;100257.91;5050080;28;20218;-61
2022/11/06 06:57:58;;;;;;;17.23;14.50;;;;;;;2.13;100.00;100256.13;5052522;28;20224;-61
2022/11/06 07:00:23;;;;;;;18.67;14.70;;;;;;;2.15;100.00;100254.41;5019932;28;20223;-61
2022/11/06 07:02:48;;;;;;;15.33;13.43;;;;;;;2.21;100.00;100260.19;5035665;28;20190;-60
2022/11/06 07:05:13;;;;;;;23.40;13.20;;;;;;;2.17;100.00;100260.25;5033888;28;20192;-60
2022/11/06 07:07:39;;;;;;;57.70;13.03;;;;;;;2.04;100.00;100252.84;5032762;28;20231;-61
2022/11/06 07:10:06;;;;;;;101.47;14.07;;;;;;;2.31;100.00;100253.25;5040841;28;20223;-61
2022/11/06 07:12:31;;;;;;;100.53;13.70;;;;;;;2.18;100.00;100251.78;5019889;28;20203;-61
2022/11/06 07:14:57;;;;;;;188.83;16.33;;;;;;;2.17;100.00;100263.66;5033401;28;20617;-61
2022/11/06 07:17:22;;;;;;;202.73;18.00;;;;;;;2.20;100.00;100258.50;5049953;28;20184;-61
2022/11/06 07:19:47;;;;;;;108.93;14.20;;;;;;;2.26;100.00;100248.25;5050253;28;20190;-60
2022/11/06 07:22:12;;;;;;;99.27;15.77;;;;;;;2.60;100.00;100245.97;5037859;28;20219;-62
2022/11/06 07:24:38;;;;;;;250.47;19.73;;;;;;;2.80;100.00;100250.66;5050803;28;20206;-61
2022/11/06 07:27:04;;;;;;;149.43;17.13;;;;;;;2.74;100.00;100249.91;5050922;28;20202;-61
2022/11/06 07:29:29;;;;;;;188.03;18.53;;;;;;;2.97;100.00;100252.84;5048079;28;20187;-61
2022/11/06 07:31:54;;;;;;;196.73;18.77;;;;;;;2.96;100.00;100248.63;5028349;28;20563;-61
2022/11/06 07:34:20;;;;;;;135.47;19.93;;;;;;;3.22;100.00;100248.06;5049044;28;20184;-61
2022/11/06 07:36:45;;;;;;;98.27;19.60;;;;;;;3.28;100.00;100247.13;5049920;28;20232;-61
2022/11/06 07:39:10;;;;;;;53.17;18.53;;;;;;;3.50;100.00;100243.22;5050656;28;20185;-61
2022/11/06 07:41:36;;;;;;;49.93;17.37;;;;;;;3.44;100.00;100248.44;5033190;28;20333;-61
2022/11/06 07:44:01;;;;;;;61.30;19.33;;;;;;;3.67;100.00;100255.53;5032648;28;20217;-61
2022/11/06 07:46:27;;;;;;;48.30;19.30;;;;;;;3.54;100.00;100257.53;5032517;28;20613;-62
2022/11/06 07:48:53;;;;;;;52.20;17.83;;;;;;;3.71;100.00;100263.94;5033410;28;20180;-60
2022/11/06 07:51:18;;;;;;;52.13;17.63;;;;;;;3.89;100.00;100267.75;5036737;28;20276;-61
2022/11/06 07:53:44;;;;;;;31.10;18.03;;;;;;;3.96;100.00;100273.53;5048831;28;20637;-61
2022/11/06 07:56:09;;;;;;;43.80;16.53;;;;;;;4.14;100.00;100275.63;5033050;28;20672;-61
2022/11/06 07:58:35;;;;;;;53.90;17.40;;;;;;;4.14;100.00;100277.31;5064181;28;20256;-61
2022/11/06 08:01:01;;;;;;;29.00;16.83;;;;;;;4.32;100.00;100269.22;5038269;28;20224;-61
2022/11/06 08:03:28;;;;;;;26.20;15.50;;;;;;;4.50;100.00;100267.91;5038030;28;20616;-60
2022/11/06 08:05:54;;;;;;;18.33;14.97;;;;;;;4.61;100.00;100265.06;5045164;28;20190;-60
2022/11/06 08:08:22;;;;;;;20.73;13.87;;;;;;;4.33;100.00;100270.06;5050312;28;20240;-60
2022/11/06 08:10:50;;;;;;;25.30;14.00;;;;;;;4.63;100.00;100270.13;5048114;28;20220;-60
2022/11/06 08:13:16;;;;;;;15.50;13.20;;;;;;;4.56;100.00;100261.81;5047717;28;20644;-60
2022/11/06 08:15:43;;;;;;;21.50;13.73;;;;;;;4.48;100.00;100261.19;5031879;28;20221;-60
2022/11/06 08:18:09;;;;;;;15.10;12.47;;;;;;;4.44;100.00;100257.88;5047586;28;20203;-61
2022/11/06 08:20:37;;;;;;;19.50;13.60;;;;;;;4.65;100.00;100253.91;5030525;28;20232;-61
2022/11/06 08:23:05;;;;;;;21.07;14.73;;;;;;;4.82;100.00;100250.06;5049075;28;20170;-61
2022/11/06 08:25:32;;;;;;;21.20;14.03;;;;;;;4.82;100.00;100248.34;5036879;28;20540;-61
2022/11/06 08:27:59;;;;;;;21.53;13.83;;;;;;;5.02;100.00;100246.94;5069766;28;20653;-61
2022/11/06 08:30:26;;;;;;;17.37;13.00;;;;;;;4.88;100.00;100239.69;5008353;28;20232;-62
2022/11/06 08:32:51;;;;;;;16.73;14.00;;;;;;;4.92;100.00;100241.25;5066442;28;20176;-61
2022/11/06 08:35:17;;;;;;;15.93;13.80;;;;;;;5.07;100.00;100239.16;5053705;28;20186;-61
2022/11/06 08:37:42;;;;;;;14.93;13.00;;;;;;;5.13;100.00;100229.59;5054185;28;20287;-61
2022/11/06 08:40:10;;;;;;;18.07;14.20;;;;;;;5.32;100.00;100226.50;5044193;28;20188;-61
2022/11/06 08:42:35;;;;;;;15.90;13.63;;;;;;;5.15;100.00;100221.91;5064575;28;20577;-61
2022/11/06 08:45:00;;;;;;;19.83;14.87;;;;;;;5.32;100.00;100221.38;5054495;28;20181;-61
2022/11/06 08:47:26;;;;;;;16.70;14.13;;;;;;;5.24;100.00;100210.59;5053981;28;20575;-60
2022/11/06 08:49:51;;;;;;;16.47;14.67;;;;;;;5.46;100.00;100209.03;5036263;28;20217;-61
2022/11/06 08:52:16;;;;;;;22.87;14.30;;;;;;;5.37;100.00;100209.34;5058969;28;20220;-61
2022/11/06 08:54:42;;;;;;;16.73;14.30;;;;;;;5.07;100.00;100200.91;5054550;28;20232;-60
2022/11/06 08:57:07;;;;;;;15.73;14.13;;;;;;;5.06;100.00;100194.97;5058638;28;20693;-61
2022/11/06 08:59:32;;;;;;;16.70;13.67;;;;;;;5.06;100.00;100197.53;5062897;28;20272;-61
2022/11/06 09:01:59;;;;;;;15.97;13.87;;;;;;;5.24;100.00;100196.13;5062143;28;20694;-61
2022/11/06 09:04:25;;;;;;;16.83;14.17;;;;;;;5.46;100.00;100200.56;5039520;28;20183;-61
2022/11/06 09:06:50;;;;;;;15.93;14.23;;;;;;;5.69;100.00;100193.88;5053703;28;20733;-61
2022/11/06 09:09:15;;;;;;;16.63;14.20;;;;;;;5.69;100.00;100191.31;5069754;28;20268;-61
2022/11/06 09:11:41;;;;;;;17.03;13.77;;;;;;;5.64;100.00;100184.66;5056333;28;20236;-61
2022/11/06 09:14:06;;;;;;;15.93;14.30;;;;;;;5.88;100.00;100182.19;5056694;28;20284;-61
2022/11/06 09:16:31;;;;;;;18.07;13.63;;;;;;;5.86;100.00;100186.50;5035617;28;20678;-60
2022/11/06 09:18:57;;;;;;;18.43;13.47;;;;;;;6.03;100.00;100177.44;5053821;28;20187;-61
2022/11/06 09:21:22;;;;;;;14.70;13.13;;;;;;;6.33;100.00;100170.44;5053737;28;20220;-61
2022/11/06 09:23:49;;;;;;;14.47;12.50;;;;;;;6.91;100.00;100170.00;5058439;28;20195;-62
2022/11/06 09:26:14;;;;;;;17.83;13.63;;;;;;;7.39;100.00;100157.94;5068693;28;20231;-62
2022/11/06 09:28:40;;;;;;;13.53;12.10;;;;;;;7.63;100.00;100149.28;5053575;28;20212;-61
2022/11/06 09:31:06;;;;;;;13.40;11.43;;;;;;;8.05;100.00;100143.25;5051469;28;20225;-61
2022/11/06 09:33:31;;;;;;;11.70;10.50;;;;;;;9.59;100.00;100134.47;5034631;28;20188;-62
2022/11/06 09:35:58;;;;;;;9.70;8.77;;;;;;;10.12;100.00;100123.22;5053426;28;20194;-62
2022/11/06 09:38:23;;;;;;;9.90;8.63;;;;;;;9.95;100.00;100113.78;5034986;28;20177;-61
2022/11/06 09:40:56;;;;;;;10.60;8.90;;;;;;;11.58;100.00;100113.50;5049216;28;20235;-61
2022/11/06 09:43:28;;;;;;;10.37;8.73;;;;;;;12.35;100.00;100107.25;5062409;28;20208;-61
2022/11/06 09:45:55;;;;;;;12.37;8.37;;;;;;;12.21;100.00;100110.69;5053277;28;20201;-61
2022/11/06 09:48:41;;;;;;;10.40;8.07;;;;;;;10.26;100.00;100112.19;5052647;28;20173;-61
2022/11/06 09:51:26;;;;;;;8.77;7.87;;;;;;;10.60;100.00;100114.72;5033930;28;20260;-60
2022/11/06 09:54:03;;;;;;;9.10;8.23;;;;;;;11.38;100.00;100099.19;5057784;28;20181;-61
2022/11/06 09:56:33;;;;;;;9.30;7.97;;;;;;;11.01;100.00;100103.88;5034381;28;20900;-61
2022/11/06 09:59:02;;;;;;;8.23;6.80;;;;;;;9.08;100.00;100095.88;5022046;28;20181;-61
2022/11/06 10:01:37;;;;;;;8.53;7.73;;;;;;;8.31;100.00;100085.72;5037434;28;20256;-59
2022/11/06 10:04:04;;;;;;;8.93;6.70;;;;;;;8.17;100.00;100085.50;5027796;28;20184;-66
2022/11/06 10:06:29;;;;;;;8.07;7.03;;;;;;;8.11;100.00;100089.16;5041796;28;20660;-60
2022/11/06 10:08:59;;;;;;;8.90;7.00;;;;;;;7.73;100.00;100084.84;5034750;28;20232;-61
2022/11/06 10:11:40;;;;;;;9.90;7.70;;;;;;;7.83;100.00;100084.44;5036082;28;20220;-60
2022/11/06 10:14:44;;;;;;;10.13;7.63;;;;;;;7.69;100.00;100077.34;5055396;28;20561;-61
2022/11/06 10:17:22;;;;;;;10.63;6.23;;;;;;;7.30;100.00;100081.50;5052084;28;20195;-61
2022/11/06 10:20:02;;;;;;;9.43;6.83;;;;;;;7.48;100.00;100073.97;5034945;28;20513;-60
2022/11/06 10:22:49;;;;;;;9.50;6.80;;;;;;;7.43;100.00;100069.88;5024882;28;20355;-60
2022/11/06 10:25:20;;;;;;;12.47;6.67;;;;;;;7.56;100.00;100079.59;5034751;28;20180;-61
2022/11/06 10:28:21;;;;;;;9.63;6.90;;;;;;;7.43;100.00;100081.84;5051721;28;20193;-61
2022/11/06 10:30:59;;;;;;;7.03;6.33;;;;;;;7.27;100.00;100079.09;5013841;28;20677;-61
2022/11/06 10:33:57;;;;;;;8.47;6.60;;;;;;;7.41;100.00;100068.28;5058190;28;20636;-61
2022/11/06 10:36:44;;;;;;;8.60;7.27;;;;;;;7.60;100.00;100063.22;5051070;28;20233;-60
2022/11/06 10:39:15;;;;;;;9.27;7.00;;;;;;;7.47;100.00;100062.06;5052342;28;20192;-61
2022/11/06 10:41:46;;;;;;;8.87;7.73;;;;;;;7.54;100.00;100051.53;5037642;28;20220;-60
2022/11/06 10:44:30;;;;;;;7.83;6.47;;;;;;;7.64;100.00;100046.84;5035957;28;20558;-61
2022/11/06 10:47:04;;;;;;;11.50;7.37;;;;;;;7.51;100.00;100041.41;5033918;28;20196;-61
2022/11/06 10:49:44;;;;;;;8.67;6.87;;;;;;;7.59;100.00;100047.03;5052091;28;20212;-60
2022/11/06 10:52:35;;;;;;;10.43;7.33;;;;;;;7.75;100.00;100036.09;5056860;28;20699;-62
2022/11/06 10:55:28;;;;;;;9.67;6.93;;;;;;;7.92;100.00;100020.00;5038155;28;20182;-60
2022/11/06 10:58:04;;;;;;;10.10;7.23;;;;;;;7.90;100.00;100026.91;5062928;28;20223;-61
2022/11/06 11:00:32;;;;;;;8.60;7.67;;;;;;;7.91;100.00;100026.88;5028752;28;20320;-62
2022/11/06 11:03:02;;;;;;;8.47;6.73;;;;;;;7.97;100.00;100020.63;5046275;28;20641;-61
2022/11/06 11:05:37;;;;;;;8.70;7.27;;;;;;;8.02;100.00;100012.72;5065907;28;20184;-60
2022/11/06 11:08:03;;;;;;;8.50;6.97;;;;;;;8.29;100.00;100010.63;5033262;28;20189;-63
2022/11/06 11:10:33;;;;;;;9.33;7.67;;;;;;;8.23;100.00;100004.06;5024389;28;20220;-61
2022/11/06 11:13:01;;;;;;;9.47;7.67;;;;;;;8.16;100.00;99999.28;5031689;28;20182;-61
2022/11/06 11:15:37;;;;;;;11.07;7.33;;;;;;;7.91;100.00;99996.13;5033657;28;20599;-61
2022/11/06 11:18:11;;;;;;;9.40;6.50;;;;;;;8.24;100.00;99994.66;5033113;28;20184;-61
2022/11/06 11:20:39;;;;;;;8.23;6.97;;;;;;;8.61;100.00;99990.38;5045707;28;20679;-59
2022/11/06 11:23:24;;;;;;;11.47;7.80;;;;;;;8.88;100.00;99971.97;5062387;28;20566;-60
2022/11/06 11:26:12;;;;;;;7.63;6.80;;;;;;;8.98;100.00;99972.34;5051407;28;20195;-61
2022/11/06 11:28:39;;;;;;;8.77;7.43;;;;;;;8.85;100.00;99960.13;5050671;28;20700;-60
2022/11/06 11:31:14;;;;;;;7.27;6.43;;;;;;;8.60;100.00;99950.25;5031738;28;20216;-59
2022/11/06 11:33:46;;;;;;;8.50;6.40;;;;;;;8.28;100.00;99944.09;5040326;28;20184;-61
2022/11/06 11:36:12;;;;;;;8.53;6.67;;;;;;;8.55;100.00;99940.22;5032942;28;20229;-60